sensor_id;sensor_type;location;lat;lon;timestamp;pressure;altitude;pressure_sealevel;temperature;humidity
59289;BME280;45056;47.602;9.886;2023-04-28T00:00:11;92852.28;;;12.53;54.76
59289;BME280;45056;47.602;9.886;2023-04-28T00:02:40;92858.19;;;12.52;54.63
59289;BME280;45056;47.602;9.886;2023-04-28T00:05:08;92851.69;;;12.49;55.00
59289;BME280;45056;47.602;9.886;2023-04-28T00:07:36;92851.38;;;12.47;55.08
59289;BME280;45056;47.602;9.886;2023-04-28T00:10:05;92850.63;;;12.47;54.98
59289;BME280;45056;47.602;9.886;2023-04-28T00:12:34;92839.72;;;12.47;55.16
59289;BME280;45056;47.602;9.886;2023-04-28T00:15:02;92843.66;;;12.46;55.11
59289;BME280;45056;47.602;9.886;2023-04-28T00:17:32;92836.22;;;12.46;55.17
59289;BME280;45056;47.602;9.886;2023-04-28T00:20:00;92840.00;;;12.49;55.23
59289;BME280;45056;47.602;9.886;2023-04-28T00:22:28;92838.03;;;12.49;55.33
59289;BME280;45056;47.602;9.886;2023-04-28T00:24:56;92832.88;;;12.51;55.45
59289;BME280;45056;47.602;9.886;2023-04-28T00:27:24;92832.88;;;12.51;55.31
59289;BME280;45056;47.602;9.886;2023-04-28T00:29:52;92832.13;;;12.51;55.37
59289;BME280;45056;47.602;9.886;2023-04-28T00:32:21;92829.84;;;12.49;55.29
59289;BME280;45056;47.602;9.886;2023-04-28T00:34:50;92835.00;;;12.47;55.44
59289;BME280;45056;47.602;9.886;2023-04-28T00:37:19;92832.72;;;12.46;55.46
59289;BME280;45056;47.602;9.886;2023-04-28T00:39:47;92826.19;;;12.43;55.49
59289;BME280;45056;47.602;9.886;2023-04-28T00:42:16;92833.19;;;12.44;55.52
59289;BME280;45056;47.602;9.886;2023-04-28T00:44:44;92836.22;;;12.46;55.60
59289;BME280;45056;47.602;9.886;2023-04-28T00:47:12;92825.28;;;12.46;55.79
59289;BME280;45056;47.602;9.886;2023-04-28T00:49:43;92832.25;;;12.47;56.00
59289;BME280;45056;47.602;9.886;2023-04-28T00:52:13;92820.59;;;12.47;55.80
59289;BME280;45056;47.602;9.886;2023-04-28T00:54:41;92817.44;;;12.48;55.96
59289;BME280;45056;47.602;9.886;2023-04-28T00:57:09;92816.22;;;12.49;55.76
59289;BME280;45056;47.602;9.886;2023-04-28T00:59:37;92816.50;;;12.51;55.58
59289;BME280;45056;47.602;9.886;2023-04-28T01:02:05;92814.09;;;12.53;55.28
59289;BME280;45056;47.602;9.886;2023-04-28T01:04:34;92819.53;;;12.53;55.20
59289;BME280;45056;47.602;9.886;2023-04-28T01:07:03;92818.63;;;12.57;55.09
59289;BME280;45056;47.602;9.886;2023-04-28T01:09:33;92820.13;;;12.58;55.14
59289;BME280;45056;47.602;9.886;2023-04-28T01:12:01;92816.94;;;12.59;55.05
59289;BME280;45056;47.602;9.886;2023-04-28T01:14:29;92815.72;;;12.60;55.03
59289;BME280;45056;47.602;9.886;2023-04-28T01:16:57;92813.75;;;12.61;55.02
59289;BME280;45056;47.602;9.886;2023-04-28T01:19:26;92803.59;;;12.61;55.10
59289;BME280;45056;47.602;9.886;2023-04-28T01:21:55;92802.38;;;12.62;55.03
59289;BME280;45056;47.602;9.886;2023-04-28T01:24:24;92801.94;;;12.64;54.84
59289;BME280;45056;47.602;9.886;2023-04-28T01:26:52;92799.50;;;12.66;54.42
59289;BME280;45056;47.602;9.886;2023-04-28T01:29:20;92799.34;;;12.69;54.16
59289;BME280;45056;47.602;9.886;2023-04-28T01:31:49;92794.47;;;12.74;53.88
59289;BME280;45056;47.602;9.886;2023-04-28T01:34:17;92792.78;;;12.76;53.61
59289;BME280;45056;47.602;9.886;2023-04-28T01:36:45;92794.63;;;12.79;53.40
59289;BME280;45056;47.602;9.886;2023-04-28T01:39:13;92788.25;;;12.82;53.53
59289;BME280;45056;47.602;9.886;2023-04-28T01:41:43;92792.78;;;12.86;53.30
59289;BME280;45056;47.602;9.886;2023-04-28T01:44:11;92783.38;;;12.87;53.54
59289;BME280;45056;47.602;9.886;2023-04-28T01:46:39;92775.19;;;12.87;53.66
59289;BME280;45056;47.602;9.886;2023-04-28T01:49:07;92784.13;;;12.87;53.56
59289;BME280;45056;47.602;9.886;2023-04-28T01:51:35;92775.94;;;12.87;53.84
59289;BME280;45056;47.602;9.886;2023-04-28T01:54:03;92777.63;;;12.84;54.17
59289;BME280;45056;47.602;9.886;2023-04-28T01:56:31;92772.31;;;12.81;54.29
59289;BME280;45056;47.602;9.886;2023-04-28T01:59:01;92772.00;;;12.79;54.06
59289;BME280;45056;47.602;9.886;2023-04-28T02:01:29;92766.09;;;12.80;53.46
59289;BME280;45056;47.602;9.886;2023-04-28T02:03:57;92772.31;;;12.81;53.10
59289;BME280;45056;47.602;9.886;2023-04-28T02:06:25;92773.38;;;12.83;52.84
59289;BME280;45056;47.602;9.886;2023-04-28T02:08:53;92779.13;;;12.86;52.63
59289;BME280;45056;47.602;9.886;2023-04-28T02:11:21;92780.16;;;12.88;52.53
59289;BME280;45056;47.602;9.886;2023-04-28T02:13:49;92776.06;;;12.93;52.28
59289;BME280;45056;47.602;9.886;2023-04-28T02:16:19;92783.34;;;12.96;52.19
59289;BME280;45056;47.602;9.886;2023-04-28T02:18:47;92773.94;;;12.97;52.36
59289;BME280;45056;47.602;9.886;2023-04-28T02:21:15;92766.03;;;12.99;52.26
59289;BME280;45056;47.602;9.886;2023-04-28T02:23:46;92758.91;;;13.02;52.25
59289;BME280;45056;47.602;9.886;2023-04-28T02:26:15;92765.88;;;13.03;52.12
59289;BME280;45056;47.602;9.886;2023-04-28T02:28:43;92759.94;;;13.04;51.79
59289;BME280;45056;47.602;9.886;2023-04-28T02:31:11;92766.47;;;13.07;51.86
59289;BME280;45056;47.602;9.886;2023-04-28T02:33:41;92760.53;;;13.08;51.62
59289;BME280;45056;47.602;9.886;2023-04-28T02:36:09;92771.75;;;13.10;51.55
59289;BME280;45056;47.602;9.886;2023-04-28T02:38:38;92782.22;;;13.12;51.42
59289;BME280;45056;47.602;9.886;2023-04-28T02:41:07;92791.19;;;13.12;51.58
59289;BME280;45056;47.602;9.886;2023-04-28T02:43:36;92779.47;;;13.12;51.80
59289;BME280;45056;47.602;9.886;2023-04-28T02:46:04;92776.00;;;13.11;52.30
59289;BME280;45056;47.602;9.886;2023-04-28T02:48:32;92784.94;;;13.12;52.20
59289;BME280;45056;47.602;9.886;2023-04-28T02:51:03;92784.50;;;13.13;52.58
59289;BME280;45056;47.602;9.886;2023-04-28T02:53:31;92786.31;;;13.17;52.73
59289;BME280;45056;47.602;9.886;2023-04-28T02:55:59;92792.06;;;13.19;52.92
59289;BME280;45056;47.602;9.886;2023-04-28T02:58:27;92791.59;;;13.20;52.96
59289;BME280;45056;47.602;9.886;2023-04-28T03:00:55;92800.84;;;13.23;52.98
59289;BME280;45056;47.602;9.886;2023-04-28T03:03:23;92800.84;;;13.23;52.92
59289;BME280;45056;47.602;9.886;2023-04-28T03:05:52;92808.56;;;13.24;53.39
59289;BME280;45056;47.602;9.886;2023-04-28T03:08:23;92814.78;;;13.25;53.50
59289;BME280;45056;47.602;9.886;2023-04-28T03:10:51;92828.44;;;13.25;53.61
59289;BME280;45056;47.602;9.886;2023-04-28T03:13:19;92820.69;;;13.23;54.04
59289;BME280;45056;47.602;9.886;2023-04-28T03:15:47;92826.66;;;13.22;54.37
59289;BME280;45056;47.602;9.886;2023-04-28T03:18:15;92821.19;;;13.22;54.83
59289;BME280;45056;47.602;9.886;2023-04-28T03:20:44;92835.75;;;13.19;54.91
59289;BME280;45056;47.602;9.886;2023-04-28T03:23:12;92840.47;;;13.18;55.47
59289;BME280;45056;47.602;9.886;2023-04-28T03:25:41;92847.91;;;13.18;56.03
59289;BME280;45056;47.602;9.886;2023-04-28T03:28:09;92839.88;;;13.14;56.72
59289;BME280;45056;47.602;9.886;2023-04-28T03:30:37;92845.03;;;13.12;57.32
59289;BME280;45056;47.602;9.886;2023-04-28T03:33:05;92846.41;;;13.07;57.93
59289;BME280;45056;47.602;9.886;2023-04-28T03:35:33;92853.25;;;13.03;58.58
59289;BME280;45056;47.602;9.886;2023-04-28T03:38:01;92851.91;;;12.98;59.17
59289;BME280;45056;47.602;9.886;2023-04-28T03:40:29;92844.34;;;12.93;59.69
59289;BME280;45056;47.602;9.886;2023-04-28T03:42:58;92854.66;;;12.89;60.20
59289;BME280;45056;47.602;9.886;2023-04-28T03:45:27;92858.00;;;12.83;60.71
59289;BME280;45056;47.602;9.886;2023-04-28T03:47:55;92843.44;;;12.77;61.21
59289;BME280;45056;47.602;9.886;2023-04-28T03:50:23;92853.31;;;12.75;61.47
59289;BME280;45056;47.602;9.886;2023-04-28T03:52:51;92849.22;;;12.70;61.83
59289;BME280;45056;47.602;9.886;2023-04-28T03:55:19;92858.81;;;12.65;62.11
59289;BME280;45056;47.602;9.886;2023-04-28T03:57:47;92868.34;;;12.61;62.40
59289;BME280;45056;47.602;9.886;2023-04-28T04:00:17;92865.47;;;12.55;62.70
59289;BME280;45056;47.602;9.886;2023-04-28T04:02:45;92876.25;;;12.49;62.67
59289;BME280;45056;47.602;9.886;2023-04-28T04:05:13;92878.03;;;12.43;62.72
59289;BME280;45056;47.602;9.886;2023-04-28T04:07:41;92879.88;;;12.37;62.93
59289;BME280;45056;47.602;9.886;2023-04-28T04:10:10;92872.59;;;12.34;63.31
59289;BME280;45056;47.602;9.886;2023-04-28T04:12:38;92874.25;;;12.31;63.48
59289;BME280;45056;47.602;9.886;2023-04-28T04:15:07;92878.19;;;12.30;63.77
59289;BME280;45056;47.602;9.886;2023-04-28T04:17:37;92873.66;;;12.27;63.80
59289;BME280;45056;47.602;9.886;2023-04-28T04:20:07;92879.56;;;12.25;64.09
59289;BME280;45056;47.602;9.886;2023-04-28T04:22:35;92873.81;;;12.23;64.25
59289;BME280;45056;47.602;9.886;2023-04-28T04:25:04;92872.28;;;12.22;64.59
59289;BME280;45056;47.602;9.886;2023-04-28T04:27:32;92880.19;;;12.20;64.62
59289;BME280;45056;47.602;9.886;2023-04-28T04:30:00;92873.22;;;12.19;64.65
59289;BME280;45056;47.602;9.886;2023-04-28T04:32:28;92875.94;;;12.19;64.81
59289;BME280;45056;47.602;9.886;2023-04-28T04:34:58;92874.72;;;12.20;64.88
59289;BME280;45056;47.602;9.886;2023-04-28T04:37:26;92876.25;;;12.21;65.03
59289;BME280;45056;47.602;9.886;2023-04-28T04:39:54;92880.63;;;12.19;65.12
59289;BME280;45056;47.602;9.886;2023-04-28T04:42:23;92872.91;;;12.17;65.21
59289;BME280;45056;47.602;9.886;2023-04-28T04:44:51;92868.63;;;12.16;65.48
59289;BME280;45056;47.602;9.886;2023-04-28T04:47:19;92878.03;;;12.15;65.72
59289;BME280;45056;47.602;9.886;2023-04-28T04:49:47;92878.03;;;12.15;65.89
59289;BME280;45056;47.602;9.886;2023-04-28T04:52:17;92875.78;;;12.14;66.13
59289;BME280;45056;47.602;9.886;2023-04-28T04:54:45;92882.75;;;12.15;66.11
59289;BME280;45056;47.602;9.886;2023-04-28T04:57:13;92873.78;;;12.14;66.30
59289;BME280;45056;47.602;9.886;2023-04-28T04:59:42;92871.53;;;12.12;66.38
59289;BME280;45056;47.602;9.886;2023-04-28T05:02:10;92878.50;;;12.14;66.39
59289;BME280;45056;47.602;9.886;2023-04-28T05:04:38;92866.22;;;12.09;66.58
59289;BME280;45056;47.602;9.886;2023-04-28T05:07:06;92855.28;;;12.00;66.89
59289;BME280;45056;47.602;9.886;2023-04-28T05:09:35;92849.81;;;11.90;67.41
59289;BME280;45056;47.602;9.886;2023-04-28T05:12:04;92854.63;;;11.77;67.99
59289;BME280;45056;47.602;9.886;2023-04-28T05:14:32;92847.63;;;11.66;68.58
59289;BME280;45056;47.602;9.886;2023-04-28T05:17:00;92838.38;;;11.54;68.89
59289;BME280;45056;47.602;9.886;2023-04-28T05:19:28;92845.44;;;11.43;69.33
59289;BME280;45056;47.602;9.886;2023-04-28T05:21:56;92856.31;;;11.33;69.62
59289;BME280;45056;47.602;9.886;2023-04-28T05:24:25;92857.97;;;11.31;69.88
59289;BME280;45056;47.602;9.886;2023-04-28T05:26:57;92866.91;;;11.31;69.98
59289;BME280;45056;47.602;9.886;2023-04-28T05:29:26;92871.88;;;11.33;70.08
59289;BME280;45056;47.602;9.886;2023-04-28T05:31:57;92873.88;;;11.32;69.95
59289;BME280;45056;47.602;9.886;2023-04-28T05:34:27;92873.41;;;11.34;70.01
59289;BME280;45056;47.602;9.886;2023-04-28T05:36:55;92865.09;;;11.37;69.93
59289;BME280;45056;47.602;9.886;2023-04-28T05:39:23;92857.25;;;11.39;69.76
59289;BME280;45056;47.602;9.886;2023-04-28T05:41:51;92857.56;;;11.42;69.71
59289;BME280;45056;47.602;9.886;2023-04-28T05:44:20;92856.34;;;11.43;69.74
59289;BME280;45056;47.602;9.886;2023-04-28T05:46:48;92858.75;;;11.40;69.58
59289;BME280;45056;47.602;9.886;2023-04-28T05:49:16;92857.56;;;11.42;69.60
59289;BME280;45056;47.602;9.886;2023-04-28T05:51:44;92851.38;;;11.41;69.64
59289;BME280;45056;47.602;9.886;2023-04-28T05:54:12;92842.41;;;11.40;69.70
59289;BME280;45056;47.602;9.886;2023-04-28T05:56:40;92834.25;;;11.40;69.82
59289;BME280;45056;47.602;9.886;2023-04-28T05:59:08;92835.44;;;11.39;69.64
59289;BME280;45056;47.602;9.886;2023-04-28T06:01:38;92837.44;;;11.39;69.79
59289;BME280;45056;47.602;9.886;2023-04-28T06:04:06;92837.44;;;11.39;69.83
59289;BME280;45056;47.602;9.886;2023-04-28T06:06:34;92835.16;;;11.37;70.07
59289;BME280;45056;47.602;9.886;2023-04-28T06:09:02;92830.13;;;11.36;70.02
59289;BME280;45056;47.602;9.886;2023-04-28T06:11:31;92822.44;;;11.34;70.03
59289;BME280;45056;47.602;9.886;2023-04-28T06:13:58;92811.53;;;11.34;70.03
59289;BME280;45056;47.602;9.886;2023-04-28T06:16:27;92823.16;;;11.35;69.98
59289;BME280;45056;47.602;9.886;2023-04-28T06:18:57;92815.00;;;11.35;69.93
59289;BME280;45056;47.602;9.886;2023-04-28T06:21:25;92815.47;;;11.33;69.84
59289;BME280;45056;47.602;9.886;2023-04-28T06:23:54;92815.16;;;11.31;69.91
59289;BME280;45056;47.602;9.886;2023-04-28T06:26:22;92812.56;;;11.28;69.74
59289;BME280;45056;47.602;9.886;2023-04-28T06:28:51;92815.28;;;11.28;69.57
59289;BME280;45056;47.602;9.886;2023-04-28T06:31:19;92799.84;;;11.24;69.48
59289;BME280;45056;47.602;9.886;2023-04-28T06:33:47;92810.13;;;11.20;69.27
59289;BME280;45056;47.602;9.886;2023-04-28T06:36:16;92807.09;;;11.18;69.30
59289;BME280;45056;47.602;9.886;2023-04-28T06:38:44;92823.88;;;11.17;69.43
59289;BME280;45056;47.602;9.886;2023-04-28T06:41:12;92829.78;;;11.15;69.12
59289;BME280;45056;47.602;9.886;2023-04-28T06:43:40;92823.56;;;11.15;68.90
59289;BME280;45056;47.602;9.886;2023-04-28T06:46:08;92831.59;;;11.18;69.16
59289;BME280;45056;47.602;9.886;2023-04-28T06:48:37;92825.25;;;11.21;69.10
59289;BME280;45056;47.602;9.886;2023-04-28T06:51:05;92837.22;;;11.24;69.15
59289;BME280;45056;47.602;9.886;2023-04-28T06:53:34;92833.13;;;11.29;69.14
59289;BME280;45056;47.602;9.886;2023-04-28T06:56:03;92833.00;;;11.32;68.75
59289;BME280;45056;47.602;9.886;2023-04-28T06:58:32;92826.34;;;11.33;68.65
59289;BME280;45056;47.602;9.886;2023-04-28T07:01:00;92825.16;;;11.34;68.42
59289;BME280;45056;47.602;9.886;2023-04-28T07:03:29;92825.47;;;11.36;68.42
59289;BME280;45056;47.602;9.886;2023-04-28T07:05:57;92826.06;;;11.40;68.76
59289;BME280;45056;47.602;9.886;2023-04-28T07:08:25;92828.78;;;11.40;68.81
59289;BME280;45056;47.602;9.886;2023-04-28T07:10:56;92828.78;;;11.40;68.88
59289;BME280;45056;47.602;9.886;2023-04-28T07:13:24;92824.13;;;11.41;69.11
59289;BME280;45056;47.602;9.886;2023-04-28T07:15:52;92831.09;;;11.42;69.29
59289;BME280;45056;47.602;9.886;2023-04-28T07:18:20;92833.66;;;11.46;69.58
59289;BME280;45056;47.602;9.886;2023-04-28T07:20:48;92830.78;;;11.49;69.51
59289;BME280;45056;47.602;9.886;2023-04-28T07:23:17;92834.56;;;11.52;69.59
59289;BME280;45056;47.602;9.886;2023-04-28T07:25:45;92828.25;;;11.55;69.66
59289;BME280;45056;47.602;9.886;2023-04-28T07:28:14;92827.34;;;11.58;69.78
59289;BME280;45056;47.602;9.886;2023-04-28T07:30:42;92825.66;;;11.61;69.77
59289;BME280;45056;47.602;9.886;2023-04-28T07:33:10;92825.22;;;11.62;69.75
59289;BME280;45056;47.602;9.886;2023-04-28T07:35:38;92824.03;;;11.63;69.93
59289;BME280;45056;47.602;9.886;2023-04-28T07:38:06;92831.72;;;11.65;69.71
59289;BME280;45056;47.602;9.886;2023-04-28T07:40:34;92827.94;;;11.62;69.87
59289;BME280;45056;47.602;9.886;2023-04-28T07:43:02;92827.94;;;11.62;70.02
59289;BME280;45056;47.602;9.886;2023-04-28T07:45:32;92825.22;;;11.62;69.94
59289;BME280;45056;47.602;9.886;2023-04-28T07:48:00;92823.25;;;11.63;70.18
59289;BME280;45056;47.602;9.886;2023-04-28T07:50:28;92820.09;;;11.64;70.54
59289;BME280;45056;47.602;9.886;2023-04-28T07:52:57;92818.09;;;11.65;70.48
59289;BME280;45056;47.602;9.886;2023-04-28T07:55:25;92829.31;;;11.67;70.43
59289;BME280;45056;47.602;9.886;2023-04-28T07:57:53;92823.84;;;11.67;70.28
59289;BME280;45056;47.602;9.886;2023-04-28T08:00:24;92829.31;;;11.67;70.30
59289;BME280;45056;47.602;9.886;2023-04-28T08:02:53;92832.50;;;11.65;70.44
59289;BME280;45056;47.602;9.886;2023-04-28T08:05:23;92829.78;;;11.65;70.58
59289;BME280;45056;47.602;9.886;2023-04-28T08:07:51;92823.13;;;11.66;70.72
59289;BME280;45056;47.602;9.886;2023-04-28T08:10:19;92820.69;;;11.68;70.76
59289;BME280;45056;47.602;9.886;2023-04-28T08:12:47;92826.75;;;11.73;70.80
59289;BME280;45056;47.602;9.886;2023-04-28T08:15:15;92830.38;;;11.79;70.86
59289;BME280;45056;47.602;9.886;2023-04-28T08:17:43;92830.13;;;11.86;70.82
59289;BME280;45056;47.602;9.886;2023-04-28T08:20:12;92837.41;;;11.89;70.59
59289;BME280;45056;47.602;9.886;2023-04-28T08:22:40;92847.69;;;11.94;70.53
59289;BME280;45056;47.602;9.886;2023-04-28T08:25:09;92847.53;;;11.98;70.53
59289;BME280;45056;47.602;9.886;2023-04-28T08:27:37;92859.22;;;11.98;70.14
59289;BME280;45056;47.602;9.886;2023-04-28T08:30:07;92859.22;;;11.98;70.04
59289;BME280;45056;47.602;9.886;2023-04-28T08:32:35;92858.59;;;11.94;70.13
59289;BME280;45056;47.602;9.886;2023-04-28T08:35:04;92865.69;;;11.92;70.47
59289;BME280;45056;47.602;9.886;2023-04-28T08:37:34;92872.84;;;11.89;70.76
59289;BME280;45056;47.602;9.886;2023-04-28T08:40:03;92876.78;;;11.88;70.86
59289;BME280;45056;47.602;9.886;2023-04-28T08:42:36;92876.00;;;11.88;71.04
59289;BME280;45056;47.602;9.886;2023-04-28T08:45:05;92875.25;;;11.87;71.27
59289;BME280;45056;47.602;9.886;2023-04-28T08:47:36;92885.81;;;11.85;71.32
59289;BME280;45056;47.602;9.886;2023-04-28T08:50:07;92867.66;;;11.82;71.57
59289;BME280;45056;47.602;9.886;2023-04-28T08:52:40;92879.75;;;11.81;71.76
59289;BME280;45056;47.602;9.886;2023-04-28T08:55:11;92878.25;;;11.80;72.05
59289;BME280;45056;47.602;9.886;2023-04-28T08:57:43;92870.06;;;11.80;72.20
59289;BME280;45056;47.602;9.886;2023-04-28T09:00:12;92875.53;;;11.80;72.24
59289;BME280;45056;47.602;9.886;2023-04-28T09:02:41;92892.34;;;11.78;72.09
59289;BME280;45056;47.602;9.886;2023-04-28T09:05:09;92870.97;;;11.77;72.32
59289;BME280;45056;47.602;9.886;2023-04-28T09:07:40;92875.69;;;11.76;72.22
59289;BME280;45056;47.602;9.886;2023-04-28T09:10:16;92864.47;;;11.74;72.26
59289;BME280;45056;47.602;9.886;2023-04-28T09:12:51;92852.50;;;11.72;72.37
59289;BME280;45056;47.602;9.886;2023-04-28T09:15:32;92862.31;;;11.69;72.26
59289;BME280;45056;47.602;9.886;2023-04-28T09:18:03;92864.31;;;11.68;72.31
59289;BME280;45056;47.602;9.886;2023-04-28T09:20:34;92848.25;;;11.71;72.17
59289;BME280;45056;47.602;9.886;2023-04-28T09:23:14;92851.59;;;11.75;72.25
59289;BME280;45056;47.602;9.886;2023-04-28T09:25:58;92854.63;;;11.77;72.29
59289;BME280;45056;47.602;9.886;2023-04-28T09:28:27;92858.84;;;11.78;72.50
59289;BME280;45056;47.602;9.886;2023-04-28T09:30:55;92854.47;;;11.80;72.50
59289;BME280;45056;47.602;9.886;2023-04-28T09:33:24;92854.03;;;11.82;72.38
59289;BME280;45056;47.602;9.886;2023-04-28T09:35:53;92860.97;;;11.83;72.08
59289;BME280;45056;47.602;9.886;2023-04-28T09:38:22;92867.66;;;11.82;72.31
59289;BME280;45056;47.602;9.886;2023-04-28T09:40:53;92881.16;;;11.86;72.42
59289;BME280;45056;47.602;9.886;2023-04-28T09:43:25;92886.16;;;11.87;72.55
59289;BME280;45056;47.602;9.886;2023-04-28T09:45:56;92886.00;;;11.91;72.34
59289;BME280;45056;47.602;9.886;2023-04-28T09:48:30;92884.03;;;11.91;72.25
59289;BME280;45056;47.602;9.886;2023-04-28T09:51:01;92880.84;;;11.93;72.34
59289;BME280;45056;47.602;9.886;2023-04-28T09:53:32;92878.91;;;11.93;72.26
59289;BME280;45056;47.602;9.886;2023-04-28T09:56:03;92873.44;;;11.93;72.19
59289;BME280;45056;47.602;9.886;2023-04-28T09:58:33;92882.66;;;11.96;72.04
59289;BME280;45056;47.602;9.886;2023-04-28T10:01:09;92876.47;;;11.95;71.89
59289;BME280;45056;47.602;9.886;2023-04-28T10:03:38;92872.06;;;11.98;71.79
59289;BME280;45056;47.602;9.886;2023-04-28T10:06:06;92876.78;;;11.97;71.68
59289;BME280;45056;47.602;9.886;2023-04-28T10:08:36;92871.75;;;11.96;71.83
59289;BME280;45056;47.602;9.886;2023-04-28T10:11:05;92869.81;;;11.96;71.68
59289;BME280;45056;47.602;9.886;2023-04-28T10:13:35;92860.84;;;11.96;72.19
59289;BME280;45056;47.602;9.886;2023-04-28T10:16:06;92860.84;;;11.96;72.07
59289;BME280;45056;47.602;9.886;2023-04-28T10:18:35;92873.28;;;11.97;72.04
59289;BME280;45056;47.602;9.886;2023-04-28T10:21:05;92869.03;;;11.96;72.07
59289;BME280;45056;47.602;9.886;2023-04-28T10:24:02;92860.41;;;11.97;72.14
59289;BME280;45056;47.602;9.886;2023-04-28T10:27:04;92859.22;;;11.98;71.94
59289;BME280;45056;47.602;9.886;2023-04-28T10:29:35;92866.63;;;11.98;72.17
59289;BME280;45056;47.602;9.886;2023-04-28T10:32:17;92861.94;;;11.98;72.40
59289;BME280;45056;47.602;9.886;2023-04-28T10:34:46;92862.28;;;12.01;72.38
59289;BME280;45056;47.602;9.886;2023-04-28T10:37:15;92851.38;;;12.01;72.16
59289;BME280;45056;47.602;9.886;2023-04-28T10:43:03;92840.75;;;12.03;72.45
59289;BME280;45056;47.602;9.886;2023-04-28T10:45:58;92837.13;;;12.06;72.48
59289;BME280;45056;47.602;9.886;2023-04-28T10:48:56;92819.84;;;12.09;72.45
59289;BME280;45056;47.602;9.886;2023-04-28T10:51:32;92831.84;;;12.11;72.45
59289;BME280;45056;47.602;9.886;2023-04-28T10:54:16;92851.22;;;12.14;72.15
59289;BME280;45056;47.602;9.886;2023-04-28T10:57:17;92864.38;;;12.15;72.09
59289;BME280;45056;47.602;9.886;2023-04-28T10:59:48;92867.88;;;12.16;72.31
59289;BME280;45056;47.602;9.886;2023-04-28T11:02:39;92865.91;;;12.16;72.40
59289;BME280;45056;47.602;9.886;2023-04-28T11:05:13;92874.88;;;12.17;72.52
59289;BME280;45056;47.602;9.886;2023-04-28T11:11:18;92875.94;;;12.29;73.10
59289;BME280;45056;47.602;9.886;2023-04-28T11:13:49;92879.56;;;12.35;72.99
59289;BME280;45056;47.602;9.886;2023-04-28T11:16:20;92862.88;;;12.42;73.09
59289;BME280;45056;47.602;9.886;2023-04-28T11:18:55;92872.75;;;12.49;72.92
59289;BME280;45056;47.602;9.886;2023-04-28T11:21:31;92870.47;;;12.57;72.93
59289;BME280;45056;47.602;9.886;2023-04-28T11:24:07;92873.66;;;12.64;72.95
59289;BME280;45056;47.602;9.886;2023-04-28T11:26:38;92874.88;;;12.73;72.67
59289;BME280;45056;47.602;9.886;2023-04-28T11:29:09;92875.31;;;12.80;72.58
59289;BME280;45056;47.602;9.886;2023-04-28T11:31:38;92867.25;;;12.86;72.44
59289;BME280;45056;47.602;9.886;2023-04-28T11:34:09;92872.84;;;12.92;72.32
59289;BME280;45056;47.602;9.886;2023-04-28T11:36:40;92878.63;;;12.94;72.26
59289;BME280;45056;47.602;9.886;2023-04-28T11:39:11;92877.09;;;12.93;72.09
59289;BME280;45056;47.602;9.886;2023-04-28T11:41:42;92872.72;;;12.95;72.17
59289;BME280;45056;47.602;9.886;2023-04-28T11:44:14;92876.47;;;12.98;72.14
59289;BME280;45056;47.602;9.886;2023-04-28T11:46:44;92880.28;;;13.01;72.05
59289;BME280;45056;47.602;9.886;2023-04-28T11:49:16;92879.22;;;12.98;71.89
59289;BME280;45056;47.602;9.886;2023-04-28T11:51:46;92879.22;;;12.98;72.13
59289;BME280;45056;47.602;9.886;2023-04-28T11:54:20;92880.72;;;12.99;72.15
59289;BME280;45056;47.602;9.886;2023-04-28T11:56:50;92880.72;;;12.99;72.02
59289;BME280;45056;47.602;9.886;2023-04-28T11:59:25;92869.81;;;12.99;72.08
59289;BME280;45056;47.602;9.886;2023-04-28T12:01:56;92880.72;;;12.99;72.39
59289;BME280;45056;47.602;9.886;2023-04-28T12:04:27;92885.75;;;13.01;72.46
59289;BME280;45056;47.602;9.886;2023-04-28T12:06:58;92881.03;;;13.01;72.25
59289;BME280;45056;47.602;9.886;2023-04-28T12:09:28;92875.13;;;13.03;72.32
59289;BME280;45056;47.602;9.886;2023-04-28T12:11:58;92870.69;;;13.05;72.53
59289;BME280;45056;47.602;9.886;2023-04-28T12:14:52;92874.00;;;13.09;72.54
59289;BME280;45056;47.602;9.886;2023-04-28T12:17:24;92870.09;;;13.10;72.30
59289;BME280;45056;47.602;9.886;2023-04-28T12:19:54;92873.56;;;13.11;72.39
59289;BME280;45056;47.602;9.886;2023-04-28T12:22:23;92869.31;;;13.10;72.22
59289;BME280;45056;47.602;9.886;2023-04-28T12:25:05;92871.28;;;13.09;72.23
59289;BME280;45056;47.602;9.886;2023-04-28T12:27:36;92871.00;;;13.07;72.02
59289;BME280;45056;47.602;9.886;2023-04-28T12:30:24;92878.88;;;13.05;72.46
59289;BME280;45056;47.602;9.886;2023-04-28T12:32:53;92875.72;;;13.07;72.57
59289;BME280;45056;47.602;9.886;2023-04-28T12:35:23;92882.97;;;13.10;72.81
59289;BME280;45056;47.602;9.886;2023-04-28T12:37:52;92874.16;;;13.15;72.75
59289;BME280;45056;47.602;9.886;2023-04-28T12:40:21;92870.81;;;13.20;72.91
59289;BME280;45056;47.602;9.886;2023-04-28T12:42:49;92872.91;;;13.25;73.00
59289;BME280;45056;47.602;9.886;2023-04-28T12:45:17;92876.25;;;13.30;72.92
59289;BME280;45056;47.602;9.886;2023-04-28T12:47:47;92878.50;;;13.31;72.71
59289;BME280;45056;47.602;9.886;2023-04-28T12:50:15;92873.22;;;13.27;72.64
59289;BME280;45056;47.602;9.886;2023-04-28T12:52:43;92881.88;;;13.26;72.32
59289;BME280;45056;47.602;9.886;2023-04-28T12:55:11;92878.56;;;13.22;72.35
59289;BME280;45056;47.602;9.886;2023-04-28T12:57:39;92879.91;;;13.17;72.47
59289;BME280;45056;47.602;9.886;2023-04-28T13:00:08;92869.91;;;13.14;72.65
59289;BME280;45056;47.602;9.886;2023-04-28T13:02:36;92870.84;;;13.11;72.62
59289;BME280;45056;47.602;9.886;2023-04-28T13:05:07;92871.59;;;13.11;72.72
59289;BME280;45056;47.602;9.886;2023-04-28T13:07:35;92878.28;;;13.10;72.54
59289;BME280;45056;47.602;9.886;2023-04-28T13:10:04;92872.50;;;13.08;72.39
59289;BME280;45056;47.602;9.886;2023-04-28T13:12:33;92864.78;;;13.07;72.47
59289;BME280;45056;47.602;9.886;2023-04-28T13:15:02;92857.50;;;13.04;72.46
59289;BME280;45056;47.602;9.886;2023-04-28T13:17:30;92858.44;;;13.01;72.47
59289;BME280;45056;47.602;9.886;2023-04-28T13:19:59;92853.41;;;12.99;72.56